createdAt,value
2019-02-27T00:49:37.207Z,66.70
2019-02-27T00:52:06.460Z,67.30
2019-02-27T00:54:35.868Z,67.30
2019-02-27T00:57:05.168Z,67.30
2019-02-27T00:59:34.480Z,67.40
2019-02-27T01:02:03.814Z,67.30
2019-02-27T01:04:35.193Z,67.20
2019-02-27T01:07:04.340Z,67.40
2019-02-27T01:09:33.755Z,67.40
2019-02-27T01:12:03.106Z,67.50
2019-02-27T01:14:36.780Z,67.40
2019-02-27T01:17:03.402Z,67.30
2019-02-27T01:19:32.675Z,67.30
2019-02-27T01:22:01.968Z,67.30
2019-02-27T01:24:31.287Z,67.40
2019-02-27T01:27:04.156Z,67.70
2019-02-27T01:29:31.599Z,67.80
2019-02-27T01:32:00.979Z,68.00
2019-02-27T01:34:30.372Z,68.00
2019-02-27T01:39:33.091Z,68.10
2019-02-27T01:42:02.504Z,68.10
2019-02-27T01:44:31.852Z,67.90
2019-02-27T01:47:02.385Z,67.80
2019-02-27T01:49:32.323Z,67.80
2019-02-27T01:52:02.201Z,67.40
2019-02-27T01:54:31.567Z,67.80
2019-02-27T01:57:02.866Z,67.70
2019-02-27T01:59:31.803Z,67.70
2019-02-27T02:02:03.387Z,67.80
2019-02-27T02:04:32.095Z,67.90
2019-02-27T02:07:01.371Z,68.10
2019-02-27T02:09:38.003Z,68.50
2019-02-27T02:12:16.420Z,68.80
2019-02-27T02:15:29.610Z,69.10
2019-02-27T02:18:55.450Z,69.30
2019-02-27T02:21:57.862Z,69.50
2019-02-27T02:25:05.448Z,69.50
2019-02-27T02:28:23.563Z,69.40
2019-02-27T02:31:25.171Z,69.30
2019-02-27T02:34:18.187Z,69.10
2019-02-27T02:37:11.609Z,69.10
2019-02-27T02:40:30.816Z,69.00
2019-02-27T02:43:40.238Z,68.90
2019-02-27T02:46:20.194Z,69.00
2019-02-27T02:49:17.958Z,68.80
2019-02-27T02:52:21.333Z,68.80
2019-02-27T02:55:17.654Z,69.10
2019-02-27T02:58:37.382Z,69.30
2019-02-27T03:01:16.824Z,69.30
2019-02-27T03:04:01.406Z,69.20
2019-02-27T03:07:14.488Z,69.30
2019-02-27T03:10:08.553Z,69.40
2019-02-27T03:13:05.795Z,69.40
2019-02-27T03:15:45.758Z,69.30
2019-02-27T03:18:41.054Z,69.10
2019-02-27T03:21:44.137Z,69.10
2019-02-27T03:24:53.395Z,69.00
2019-02-27T03:27:44.398Z,69.10
2019-02-27T03:31:01.910Z,69.20
2019-02-27T03:34:05.908Z,69.30
2019-02-27T03:36:53.418Z,69.20
2019-02-27T03:39:46.262Z,69.20
2019-02-27T03:42:42.003Z,69.20
2019-02-27T03:45:32.082Z,69.20
2019-02-27T03:48:42.917Z,69.20
2019-02-27T03:51:24.684Z,69.20
2019-02-27T03:54:10.976Z,69.10
2019-02-27T03:57:24.030Z,69.20
2019-02-27T04:00:42.156Z,69.30
2019-02-27T04:03:55.248Z,69.30
2019-02-27T04:07:07.305Z,69.30
2019-02-27T04:09:36.669Z,69.40
2019-02-27T04:12:06.040Z,69.10
2019-02-27T04:14:40.093Z,69.60
2019-02-27T04:17:07.689Z,69.70
2019-02-27T04:19:39.163Z,69.80
2019-02-27T04:22:08.092Z,70.00
2019-02-27T04:24:37.399Z,70.00
2019-02-27T04:27:06.660Z,70.30
2019-02-27T04:29:40.842Z,70.20
2019-02-27T04:32:09.575Z,70.00
2019-02-27T04:34:37.904Z,70.10
2019-02-27T04:37:07.296Z,70.00
2019-02-27T04:39:38.279Z,70.00
2019-02-27T04:42:07.684Z,70.20
2019-02-27T04:44:38.899Z,70.20
2019-02-27T04:47:07.908Z,70.10
2019-02-27T04:49:37.864Z,69.90
2019-02-27T04:52:07.671Z,69.80
2019-02-27T04:54:41.268Z,69.70
2019-02-27T04:57:07.916Z,69.60
2019-02-27T04:59:37.247Z,69.60
2019-02-27T05:02:06.588Z,69.50
2019-02-27T05:04:35.907Z,69.60
2019-02-27T05:07:05.275Z,69.70
2019-02-27T05:09:34.848Z,69.80
2019-02-27T05:12:04.147Z,69.80
2019-02-27T05:14:33.420Z,69.70
2019-02-27T05:17:02.757Z,69.80
2019-02-27T05:19:32.023Z,69.90
2019-02-27T05:22:04.407Z,69.90
2019-02-27T05:24:33.666Z,69.90
2019-02-27T05:27:02.959Z,69.90
2019-02-27T05:29:35.175Z,69.90
2019-02-27T05:32:03.883Z,69.90
2019-02-27T05:34:33.210Z,70.00
2019-02-27T05:37:05.102Z,70.20
2019-02-27T05:39:33.885Z,70.30
2019-02-27T05:42:06.097Z,70.10
2019-02-27T05:44:34.263Z,70.10
2019-02-27T05:47:04.007Z,70.10
2019-02-27T05:49:33.307Z,70.00
2019-02-27T05:52:02.522Z,69.90
2019-02-27T05:54:32.364Z,70.00
2019-02-27T05:57:02.223Z,70.30
2019-02-27T05:59:31.502Z,70.60
2019-02-27T06:02:00.748Z,70.70
2019-02-27T06:04:30.042Z,70.90
2019-02-27T06:06:59.482Z,71.10
2019-02-27T06:09:28.781Z,71.40
2019-02-27T06:11:58.098Z,71.50
2019-02-27T06:14:27.422Z,71.50
2019-02-27T06:16:56.727Z,71.50
2019-02-27T06:19:26.062Z,71.50
2019-02-27T06:21:56.370Z,71.60
2019-02-27T06:24:26.130Z,71.90
2019-02-27T06:26:55.489Z,72.10
2019-02-27T06:29:24.715Z,72.30
2019-02-27T06:31:57.070Z,72.50
2019-02-27T06:34:26.394Z,72.80
2019-02-27T06:36:55.726Z,74.00
2019-02-27T06:39:25.018Z,74.20
2019-02-27T06:41:54.313Z,73.60
2019-02-27T06:44:23.749Z,73.90
2019-02-27T06:46:53.869Z,74.20
2019-02-27T06:49:23.865Z,74.40
2019-02-27T06:51:53.189Z,74.60
2019-02-27T06:54:22.429Z,74.80
2019-02-27T06:56:51.641Z,75.10
2019-02-27T06:59:24.732Z,75.20
2019-02-27T07:01:51.853Z,75.30
2019-02-27T07:04:21.129Z,75.40
2019-02-27T07:06:50.361Z,75.50
2019-02-27T07:09:19.702Z,75.60
2019-02-27T07:11:49.023Z,75.70
2019-02-27T07:14:18.373Z,75.80
2019-02-27T07:16:47.717Z,75.90
2019-02-27T07:19:17.065Z,76.10
2019-02-27T07:21:46.521Z,76.10
2019-02-27T07:24:15.777Z,76.20
2019-02-27T07:26:47.581Z,76.30
2019-02-27T07:29:21.554Z,76.40
2019-02-27T07:31:49.535Z,76.50
2019-02-27T07:34:17.971Z,76.60
2019-02-27T07:36:47.333Z,76.70
2019-02-27T07:39:16.704Z,76.80
2019-02-27T07:41:46.076Z,76.90
2019-02-27T07:44:15.489Z,77.00
2019-02-27T07:46:44.864Z,77.10
2019-02-27T07:49:14.265Z,77.10
2019-02-27T07:51:43.573Z,77.20
2019-02-27T07:54:12.848Z,77.20
2019-02-27T07:56:42.212Z,77.40
2019-02-27T07:59:11.468Z,77.50
2019-02-27T08:01:43.814Z,77.50
2019-02-27T08:04:11.769Z,77.40
2019-02-27T08:06:41.564Z,77.40
2019-02-27T08:09:11.100Z,77.40
2019-02-27T08:11:40.372Z,77.50
2019-02-27T08:14:09.737Z,77.40
2019-02-27T08:16:39.097Z,77.50
2019-02-27T08:19:08.955Z,77.50
2019-02-27T08:21:39.540Z,77.50
2019-02-27T08:24:08.816Z,77.50
2019-02-27T08:26:38.120Z,77.60
2019-02-27T08:29:07.564Z,77.50
2019-02-27T08:31:36.975Z,77.60
2019-02-27T08:34:06.313Z,77.70
2019-02-27T08:36:35.684Z,77.80
2019-02-27T08:39:06.120Z,77.90
2019-02-27T08:41:35.480Z,78.00
2019-02-27T08:44:04.936Z,78.20
2019-02-27T08:46:37.004Z,78.40
2019-02-27T08:49:05.224Z,78.70
2019-02-27T08:51:34.600Z,78.90
2019-02-27T08:54:04.053Z,79.30
2019-02-27T08:56:33.424Z,79.50
2019-02-27T08:59:05.081Z,79.80
2019-02-27T09:01:33.780Z,80.30
2019-02-27T09:04:03.198Z,80.40
2019-02-27T09:06:32.504Z,80.60
2019-02-27T09:09:01.813Z,81.10
2019-02-27T09:11:31.120Z,81.30
2019-02-27T09:14:00.403Z,81.50
2019-02-27T09:16:29.768Z,81.80
2019-02-27T09:18:59.531Z,82.10
2019-02-27T09:21:28.903Z,82.40
2019-02-27T09:23:58.252Z,82.80
2019-02-27T09:26:27.639Z,82.90
2019-02-27T09:28:57.231Z,83.20
2019-02-27T09:31:26.565Z,83.50
2019-02-27T09:33:55.835Z,83.70
2019-02-27T09:36:25.203Z,84.10
2019-02-27T09:38:57.348Z,84.10
2019-02-27T09:41:25.506Z,84.30
2019-02-27T09:43:54.723Z,84.40
2019-02-27T09:46:24.001Z,84.60
2019-02-27T09:48:53.411Z,84.80
2019-02-27T09:51:22.915Z,84.80
2019-02-27T09:53:52.195Z,85.00
2019-02-27T09:56:21.574Z,85.00
2019-02-27T09:58:51.018Z,85.10
2019-02-27T10:01:20.435Z,85.20
2019-02-27T10:03:52.023Z,85.20
2019-02-27T10:06:20.753Z,85.30
2019-02-27T10:08:50.078Z,85.40
2019-02-27T10:11:22.111Z,85.40
2019-02-27T10:13:50.398Z,85.50
2019-02-27T10:16:21.404Z,85.40
2019-02-27T10:18:54.785Z,85.40
2019-02-27T10:21:21.638Z,85.40
2019-02-27T10:23:50.909Z,85.30
2019-02-27T10:26:22.081Z,85.20
2019-02-27T10:28:51.098Z,85.20
2019-02-27T10:31:20.398Z,85.10
2019-02-27T10:33:49.798Z,85.20
2019-02-27T10:36:19.126Z,85.30
2019-02-27T10:38:48.386Z,85.30
2019-02-27T10:41:17.704Z,85.30
2019-02-27T10:43:47.070Z,85.20
2019-02-27T10:46:16.353Z,85.20
2019-02-27T10:48:46.970Z,85.00
2019-02-27T10:51:16.662Z,85.00
2019-02-27T10:53:46.113Z,84.80
2019-02-27T10:56:15.401Z,84.90
2019-02-27T10:58:44.999Z,84.80
2019-02-27T11:01:15.686Z,84.70
2019-02-27T11:03:45.053Z,84.60
2019-02-27T11:06:14.314Z,84.50
2019-02-27T11:08:43.629Z,84.40
2019-02-27T11:11:13.153Z,84.30
2019-02-27T11:13:43.897Z,84.20
2019-02-27T11:16:15.409Z,84.30
2019-02-27T11:18:46.557Z,84.20
2019-02-27T11:21:15.825Z,84.20
2019-02-27T11:23:47.073Z,83.90
2019-02-27T11:26:19.337Z,83.80
2019-02-27T11:28:48.653Z,83.50
2019-02-27T11:31:17.981Z,83.20
2019-02-27T11:33:47.389Z,82.90
2019-02-27T11:36:16.749Z,82.50
2019-02-27T11:38:46.197Z,82.20
2019-02-27T11:41:15.933Z,82.10
2019-02-27T11:43:45.809Z,81.80
2019-02-27T11:46:15.132Z,80.80
2019-02-27T11:48:44.472Z,79.30
2019-02-27T11:51:14.013Z,77.80
2019-02-27T11:53:43.309Z,76.60
2019-02-27T11:56:12.624Z,75.30
2019-02-27T11:58:41.902Z,74.40
2019-02-27T12:01:12.176Z,73.40
2019-02-27T12:03:45.679Z,72.70
2019-02-27T12:06:12.552Z,71.90
2019-02-27T12:08:41.808Z,71.30
2019-02-27T12:11:13.396Z,70.60
2019-02-27T12:13:42.240Z,70.00
2019-02-27T12:16:11.580Z,69.10
2019-02-27T12:18:40.912Z,68.50
2019-02-27T12:21:10.288Z,67.90
2019-02-27T12:23:41.247Z,67.50
2019-02-27T12:26:10.533Z,67.00
2019-02-27T12:28:39.875Z,66.40
2019-02-27T12:31:11.055Z,65.50
2019-02-27T12:33:40.992Z,64.80
2019-02-27T12:36:10.310Z,64.10
2019-02-27T12:38:42.326Z,63.50
2019-02-27T12:41:10.655Z,63.00
2019-02-27T12:43:40.312Z,62.40
2019-02-27T12:46:09.776Z,61.60
2019-02-27T12:48:39.220Z,60.70
2019-02-27T12:51:08.541Z,60.30
2019-02-27T12:53:37.864Z,59.80
2019-02-27T12:56:07.848Z,59.20
2019-02-27T12:58:37.771Z,58.80
2019-02-27T13:01:07.853Z,58.50
2019-02-27T13:03:37.167Z,58.00
2019-02-27T13:06:06.655Z,57.70
2019-02-27T13:08:35.968Z,58.30
2019-02-27T13:11:08.011Z,57.40
2019-02-27T13:13:37.175Z,57.20
2019-02-27T13:16:06.515Z,56.90
2019-02-27T13:18:35.791Z,56.50
2019-02-27T13:21:05.159Z,56.40
2019-02-27T13:23:36.379Z,56.10
2019-02-27T13:26:05.387Z,55.70
2019-02-27T13:28:34.635Z,55.50
2019-02-27T13:31:05.743Z,55.30
2019-02-27T13:33:35.515Z,55.20
2019-02-27T13:36:06.187Z,55.10
2019-02-27T13:38:36.985Z,55.00
2019-02-27T13:41:07.762Z,54.80
2019-02-27T13:43:37.402Z,54.60
2019-02-27T13:46:06.726Z,54.30
2019-02-27T13:48:37.382Z,54.20
2019-02-27T13:51:06.979Z,54.30
2019-02-27T13:53:36.274Z,54.30
2019-02-27T13:56:05.666Z,54.40
2019-02-27T13:58:36.525Z,54.70
2019-02-27T14:01:07.120Z,55.20
2019-02-27T14:03:36.478Z,55.40
2019-02-27T14:06:09.021Z,55.60
2019-02-27T14:08:37.094Z,55.30
2019-02-27T14:11:06.554Z,54.70
2019-02-27T14:13:35.810Z,54.10
2019-02-27T14:16:05.094Z,53.70
2019-02-27T14:18:34.390Z,53.30
2019-02-27T14:21:03.694Z,53.00
2019-02-27T14:23:33.294Z,52.80
2019-02-27T14:26:05.539Z,52.50
2019-02-27T14:28:33.461Z,52.40
2019-02-27T14:31:03.013Z,52.30
2019-02-27T14:33:32.265Z,52.20
2019-02-27T14:36:01.566Z,52.10
2019-02-27T14:38:30.826Z,51.80
2019-02-27T14:41:00.146Z,51.60
2019-02-27T14:43:29.534Z,51.60
2019-02-27T14:45:58.910Z,51.60
2019-02-27T14:48:28.324Z,51.60
2019-02-27T14:50:57.657Z,51.50
2019-02-27T14:53:27.049Z,51.40
2019-02-27T14:55:56.375Z,51.40
2019-02-27T14:58:25.668Z,51.30
2019-02-27T15:00:55.033Z,51.20
2019-02-27T15:03:29.182Z,51.20
2019-02-27T15:05:55.381Z,51.10
2019-02-27T15:08:25.288Z,51.20
2019-02-27T15:10:55.349Z,51.30
2019-02-27T15:13:28.167Z,51.30
2019-02-27T15:15:55.660Z,51.40
2019-02-27T15:18:25.045Z,51.50
2019-02-27T15:20:54.293Z,51.60
2019-02-27T15:23:24.566Z,52.00
2019-02-27T15:25:54.686Z,52.70
2019-02-27T15:28:24.016Z,53.30
2019-02-27T15:30:53.585Z,54.30
2019-02-27T15:33:22.810Z,54.10
2019-02-27T15:35:55.116Z,54.50
2019-02-27T15:38:23.029Z,54.90
2019-02-27T15:40:52.329Z,55.20
2019-02-27T15:43:21.633Z,55.50
2019-02-27T15:45:50.973Z,55.70
2019-02-27T15:48:20.257Z,56.60
2019-02-27T15:50:49.549Z,56.30
2019-02-27T15:53:18.853Z,56.60
2019-02-27T15:55:48.225Z,57.20
2019-02-27T15:58:17.557Z,57.30
2019-02-27T16:00:52.337Z,57.60
2019-02-27T16:03:17.932Z,57.90
2019-02-27T16:05:47.199Z,58.20
2019-02-27T16:08:16.492Z,58.50
2019-02-27T16:10:54.600Z,58.80
2019-02-27T16:13:16.680Z,59.00
2019-02-27T16:15:48.397Z,59.30
2019-02-27T16:18:17.328Z,59.60
2019-02-27T16:20:49.395Z,59.70
2019-02-27T16:23:19.708Z,60.00
2019-02-27T16:25:52.820Z,60.30
2019-02-27T16:28:19.916Z,60.60
2019-02-27T16:30:49.236Z,61.10
2019-02-27T16:33:23.519Z,61.30
2019-02-27T16:35:50.486Z,61.70
2019-02-27T16:38:19.788Z,61.90
2019-02-27T16:40:52.016Z,62.30
2019-02-27T16:43:20.136Z,62.60
2019-02-27T16:45:49.550Z,63.00
2019-02-27T16:48:18.952Z,63.40
2019-02-27T16:50:48.355Z,63.70
2019-02-27T16:53:19.444Z,64.00
2019-02-27T16:55:48.908Z,65.30
2019-02-27T16:58:18.195Z,64.90
2019-02-27T17:00:47.580Z,65.10
2019-02-27T17:03:18.456Z,65.50
2019-02-27T17:05:49.736Z,65.80
2019-02-27T17:08:18.820Z,66.10
2019-02-27T17:10:51.767Z,66.40
2019-02-27T17:13:19.148Z,66.60
2019-02-27T17:15:48.528Z,66.90
2019-02-27T17:18:17.793Z,67.20
2019-02-27T17:20:47.382Z,68.40
2019-02-27T17:23:16.636Z,67.70
2019-02-27T17:25:45.928Z,67.90
2019-02-27T17:28:15.238Z,68.10
2019-02-27T17:30:44.548Z,68.30
2019-02-27T17:33:15.759Z,68.50
2019-02-27T17:35:44.851Z,68.70
2019-02-27T17:38:14.747Z,68.90
2019-02-27T17:40:44.004Z,69.10
2019-02-27T17:43:13.303Z,69.30
2019-02-27T17:45:44.362Z,69.40
2019-02-27T17:48:13.519Z,69.60
2019-02-27T17:50:42.855Z,69.80
2019-02-27T17:53:12.155Z,69.90
2019-02-27T17:55:42.483Z,70.10
2019-02-27T17:58:12.007Z,70.30
2019-02-27T18:00:42.756Z,70.50
2019-02-27T18:03:12.019Z,70.60
2019-02-27T18:05:41.317Z,70.70
2019-02-27T18:08:15.793Z,70.80
2019-02-27T18:10:41.707Z,70.90
2019-02-27T18:13:10.955Z,70.90
2019-02-27T18:15:40.295Z,70.90
2019-02-27T18:18:10.602Z,70.90
2019-02-27T18:20:40.343Z,70.90
2019-02-27T18:23:09.750Z,70.90
2019-02-27T18:25:42.111Z,70.90
2019-02-27T18:28:10.510Z,70.80
2019-02-27T18:30:39.839Z,70.70
2019-02-27T18:35:47.451Z,70.60
2019-02-27T18:38:16.762Z,70.70
2019-02-27T18:40:46.025Z,70.80
2019-02-27T18:43:15.418Z,70.90
2019-02-27T18:45:44.626Z,70.90
2019-02-27T18:48:15.168Z,71.00
2019-02-27T18:50:44.470Z,71.10
2019-02-27T18:53:14.056Z,71.00
2019-02-27T18:55:44.100Z,71.10
2019-02-27T19:00:42.875Z,71.20
2019-02-27T19:03:12.250Z,71.20
2019-02-27T19:05:42.022Z,71.20
2019-02-27T19:08:11.669Z,71.10
2019-02-27T19:10:42.388Z,71.10
2019-02-27T19:13:11.969Z,71.10
2019-02-27T19:15:45.518Z,71.00
2019-02-27T19:18:12.779Z,70.80
2019-02-27T19:20:42.238Z,70.80
2019-02-27T19:23:17.319Z,70.60
2019-02-27T19:25:42.862Z,70.60
2019-02-27T19:28:12.450Z,70.30
2019-02-27T19:30:42.607Z,70.10
2019-02-27T19:33:11.985Z,70.00
2019-02-27T19:35:41.369Z,69.80
2019-02-27T19:38:13.118Z,69.60
2019-02-27T19:40:41.606Z,69.40
2019-02-27T19:43:10.862Z,69.30
2019-02-27T19:45:42.152Z,69.00
2019-02-27T19:48:12.308Z,68.70
2019-02-27T19:50:45.311Z,68.30
2019-02-27T19:53:13.867Z,68.00
2019-02-27T19:55:43.138Z,67.60
2019-02-27T19:58:17.150Z,67.40
2019-02-27T20:00:48.358Z,67.20
2019-02-27T20:03:14.406Z,66.80
2019-02-27T20:05:43.713Z,65.90
2019-02-27T20:08:13.201Z,67.30
2019-02-27T20:10:44.092Z,66.40
2019-02-27T20:13:14.133Z,66.30
2019-02-27T20:15:45.781Z,66.10
2019-02-27T20:18:14.605Z,65.90
2019-02-27T20:20:44.006Z,65.80
2019-02-27T20:23:13.277Z,65.60
2019-02-27T20:25:44.144Z,65.50
2019-02-27T20:28:13.798Z,65.60
2019-02-27T20:30:43.129Z,65.60
2019-02-27T20:33:12.428Z,65.60
2019-02-27T20:35:41.792Z,65.60
2019-02-27T20:38:15.314Z,65.70
2019-02-27T20:40:42.141Z,65.60
2019-02-27T20:43:11.445Z,65.70
2019-02-27T20:45:42.922Z,65.70
2019-02-27T20:48:11.693Z,65.80
2019-02-27T20:50:42.513Z,65.80
2019-02-27T20:53:12.180Z,65.90
2019-02-27T20:55:41.524Z,66.00
2019-02-27T20:58:16.183Z,66.20
2019-02-27T21:00:41.932Z,66.20
2019-02-27T21:03:11.278Z,66.30
2019-02-27T21:05:41.840Z,66.40
2019-02-27T21:08:11.479Z,66.50
2019-02-27T21:10:40.727Z,66.70
2019-02-27T21:13:15.657Z,66.80
2019-02-27T21:15:40.998Z,67.00
2019-02-27T21:18:10.443Z,67.20
2019-02-27T21:20:42.211Z,67.30
2019-02-27T21:23:10.779Z,67.60
2019-02-27T21:25:40.154Z,67.60
2019-02-27T21:28:09.439Z,67.80
2019-02-27T21:30:38.982Z,68.10
2019-02-27T21:33:11.086Z,68.30
2019-02-27T21:35:39.186Z,68.60
2019-02-27T21:38:08.542Z,68.60
2019-02-27T21:40:37.832Z,68.70
2019-02-27T21:43:07.097Z,68.80
2019-02-27T21:45:37.582Z,69.00
2019-02-27T21:48:07.684Z,69.20
2019-02-27T21:50:39.596Z,69.20
2019-02-27T21:53:07.874Z,69.30
2019-02-27T21:55:37.232Z,69.40
2019-02-27T21:58:06.540Z,69.40
2019-02-27T22:00:35.843Z,69.40
2019-02-27T22:03:05.524Z,69.40
2019-02-27T22:05:42.574Z,69.40
2019-02-27T22:08:06.220Z,69.40
2019-02-27T22:10:35.608Z,69.30
2019-02-27T22:13:09.354Z,69.30
2019-02-27T22:15:35.947Z,69.20
2019-02-27T22:18:05.267Z,69.10
2019-02-27T22:20:34.563Z,69.10
2019-02-27T22:23:03.845Z,68.90
2019-02-27T22:25:33.407Z,68.90
2019-02-27T22:28:02.777Z,69.00
2019-02-27T22:30:32.698Z,68.90
2019-02-27T22:33:01.999Z,68.90
2019-02-27T22:35:37.335Z,68.90
2019-02-27T22:38:02.267Z,68.80
2019-02-27T22:40:31.527Z,68.80
2019-02-27T22:43:00.891Z,68.80
2019-02-27T22:45:30.195Z,68.80
2019-02-27T22:47:59.574Z,68.80
2019-02-27T22:50:28.947Z,68.80
2019-02-27T22:52:58.504Z,68.70
2019-02-27T22:58:03.303Z,68.80
2019-02-27T23:01:00.887Z,68.50
2019-02-27T23:03:32.630Z,68.40
2019-02-27T23:06:02.114Z,68.20
2019-02-27T23:08:31.398Z,68.10
2019-02-27T23:11:02.970Z,68.10
2019-02-27T23:13:32.098Z,68.00
2019-02-27T23:16:01.515Z,67.80
2019-02-27T23:18:31.699Z,67.70
2019-02-27T23:21:00.994Z,67.50
2019-02-27T23:23:33.370Z,67.50
2019-02-27T23:26:01.386Z,67.40
2019-02-27T23:28:34.494Z,67.30
2019-02-27T23:31:01.770Z,67.50
2019-02-27T23:33:35.586Z,67.50
2019-02-27T23:36:02.050Z,67.50
2019-02-27T23:38:34.615Z,67.60
2019-02-27T23:41:02.312Z,67.70
2019-02-27T23:43:34.022Z,67.60
2019-02-27T23:46:02.654Z,67.80
2019-02-27T23:48:35.866Z,67.80
2019-02-27T23:51:02.958Z,67.90
2019-02-27T23:53:32.249Z,67.90
2019-02-27T23:56:01.638Z,67.90
2019-02-27T23:58:30.997Z,67.90
